createdAt,value
2018-11-13T00:04:13.602Z,11.60
2018-11-13T00:09:16.746Z,11.50
2018-11-13T00:14:19.893Z,11.40
2018-11-13T00:19:23.127Z,11.60
2018-11-13T00:24:26.263Z,11.50
2018-11-13T00:29:29.470Z,11.40
2018-11-13T00:34:32.550Z,11.30
2018-11-13T00:39:35.774Z,11.40
2018-11-13T00:44:38.915Z,11.40
2018-11-13T00:49:42.045Z,11.50
2018-11-13T00:54:45.277Z,11.40
2018-11-13T00:59:48.398Z,11.40
2018-11-13T01:04:51.781Z,11.40
2018-11-13T01:09:54.949Z,11.30
2018-11-13T01:14:58.157Z,11.30
2018-11-13T01:20:01.381Z,11.20
2018-11-13T01:25:04.841Z,11.20
2018-11-13T01:30:09.492Z,11.00
2018-11-13T01:35:13.962Z,11.00
2018-11-13T01:40:19.506Z,10.90
2018-11-13T01:45:22.653Z,11.00
2018-11-13T01:50:25.822Z,11.00
2018-11-13T01:55:28.962Z,11.10
2018-11-13T02:00:32.125Z,11.10
2018-11-13T02:05:35.253Z,11.10
2018-11-13T02:10:38.438Z,11.00
2018-11-13T02:15:41.649Z,11.00
2018-11-13T02:20:44.866Z,11.00
2018-11-13T02:25:47.997Z,11.00
2018-11-13T02:30:51.337Z,11.00
2018-11-13T02:35:54.450Z,11.10
2018-11-13T02:40:57.590Z,11.20
2018-11-13T02:46:00.718Z,11.20
2018-11-13T02:51:03.853Z,11.10
2018-11-13T02:56:07.109Z,10.90
2018-11-13T03:01:10.297Z,11.10
2018-11-13T03:06:13.501Z,11.20
2018-11-13T03:11:16.697Z,11.10
2018-11-13T03:16:19.917Z,11.10
2018-11-13T03:21:23.120Z,11.10
2018-11-13T03:26:26.330Z,11.30
2018-11-13T03:31:29.565Z,11.20
2018-11-13T03:36:32.783Z,11.20
2018-11-13T03:41:36.169Z,11.30
2018-11-13T03:46:39.334Z,11.20
2018-11-13T03:51:42.508Z,11.20
2018-11-13T03:56:45.667Z,11.20
2018-11-13T04:01:48.829Z,11.20
2018-11-13T04:06:52.018Z,11.20
2018-11-13T04:11:55.183Z,11.20
2018-11-13T04:16:58.343Z,11.10
2018-11-13T04:22:03.028Z,11.20
2018-11-13T04:27:06.271Z,11.10
2018-11-13T04:32:09.441Z,11.20
2018-11-13T04:37:12.682Z,11.20
2018-11-13T04:42:15.837Z,11.20
2018-11-13T04:47:18.995Z,11.30
2018-11-13T04:52:22.270Z,11.20
2018-11-13T04:57:25.434Z,11.30
2018-11-13T05:02:28.621Z,11.20
2018-11-13T05:07:31.833Z,11.20
2018-11-13T16:06:10.268Z,12.20
2018-11-13T16:11:13.346Z,12.20
2018-11-13T16:16:16.486Z,12.00
2018-11-13T16:21:19.754Z,12.00
2018-11-13T16:26:22.918Z,12.10
2018-11-13T16:31:26.215Z,12.00
2018-11-13T16:36:29.382Z,12.10
2018-11-13T16:41:32.534Z,12.00
2018-11-13T16:46:36.125Z,12.10
2018-11-13T16:51:39.361Z,11.90
2018-11-13T16:56:53.250Z,11.90
2018-11-13T17:01:56.463Z,11.80
2018-11-13T17:06:59.784Z,11.80
2018-11-13T17:12:03.413Z,11.80
2018-11-13T17:17:06.683Z,11.60
2018-11-13T17:22:09.841Z,11.50
2018-11-13T17:27:13.097Z,11.70
2018-11-13T17:32:16.259Z,11.50
2018-11-13T17:37:19.554Z,11.40
2018-11-13T17:42:23.789Z,11.40
2018-11-13T17:47:26.930Z,11.40
2018-11-13T17:52:30.177Z,11.30
2018-11-13T17:57:33.296Z,11.40
2018-11-13T18:02:36.541Z,11.30
2018-11-13T18:07:40.269Z,11.20
2018-11-13T18:12:43.365Z,11.20
2018-11-13T18:17:47.390Z,11.20
2018-11-13T18:22:50.604Z,11.20
2018-11-13T18:27:55.100Z,11.10
2018-11-13T18:32:58.884Z,11.10
2018-11-13T18:38:03.540Z,11.00
2018-11-13T18:43:06.972Z,11.10
2018-11-13T18:48:10.142Z,11.10
2018-11-13T18:53:13.417Z,11.10
2018-11-13T18:58:16.531Z,11.00
2018-11-13T19:03:19.761Z,11.00
2018-11-13T19:08:22.885Z,10.90
2018-11-13T19:13:27.317Z,10.80
2018-11-13T19:18:30.632Z,10.80
2018-11-13T19:23:33.617Z,10.90
2018-11-13T19:28:36.779Z,10.80
2018-11-13T19:33:39.950Z,10.90
2018-11-13T19:38:43.177Z,10.80
2018-11-13T19:43:46.433Z,10.90
2018-11-13T19:48:49.689Z,10.90
2018-11-13T19:53:52.944Z,10.90
2018-11-13T19:58:56.065Z,10.80
2018-11-13T20:03:59.294Z,10.90
2018-11-13T20:09:02.413Z,10.70
2018-11-13T20:14:05.654Z,10.70
2018-11-13T20:19:08.850Z,10.60
2018-11-13T20:24:12.045Z,10.70
2018-11-13T20:29:15.197Z,10.70
2018-11-13T20:34:18.375Z,10.60
2018-11-13T20:39:21.514Z,10.60
2018-11-13T20:44:24.897Z,10.50
2018-11-13T20:49:28.109Z,10.60
2018-11-13T20:54:31.312Z,10.50
2018-11-13T20:59:34.710Z,10.50
2018-11-13T21:04:37.837Z,10.60
2018-11-13T21:09:41.094Z,10.60
2018-11-13T21:14:44.170Z,10.50
2018-11-13T21:19:47.396Z,10.60
2018-11-13T21:24:50.502Z,10.50
2018-11-13T21:29:53.717Z,10.40
2018-11-13T21:34:56.877Z,10.50
2018-11-13T21:40:00.038Z,10.30
2018-11-13T21:45:03.200Z,10.30
2018-11-13T21:50:08.336Z,10.30
2018-11-13T21:55:13.535Z,10.40
2018-11-13T22:00:22.797Z,10.40
2018-11-13T22:05:27.004Z,10.40
2018-11-13T22:10:30.248Z,10.20
2018-11-13T22:15:33.405Z,10.30
2018-11-13T22:20:43.613Z,10.30
2018-11-13T22:25:39.864Z,10.30
2018-11-13T22:30:43.042Z,10.10
2018-11-13T22:35:46.286Z,10.00
2018-11-13T22:40:49.468Z,10.00
2018-11-13T22:45:52.701Z,10.10
2018-11-13T22:50:55.959Z,10.00
2018-11-13T22:55:59.090Z,10.10
2018-11-13T23:01:02.733Z,10.00
2018-11-13T23:06:05.446Z,10.00
2018-11-13T23:11:13.841Z,9.90
2018-11-13T23:16:17.011Z,9.90
2018-11-13T23:21:20.170Z,9.90
2018-11-13T23:26:23.352Z,10.00
2018-11-13T23:31:26.781Z,9.80
2018-11-13T23:36:29.765Z,9.70
2018-11-13T23:41:32.938Z,9.60
2018-11-13T23:46:36.129Z,9.90
2018-11-13T23:51:39.299Z,9.80
2018-11-13T23:56:42.457Z,9.70
